Time;durP1;ratioP1;P1;durP2;ratioP2;P2;SDS_P1;SDS_P2;PMS_P1;PMS_P2;Temp;Humidity;BMP_temperature;BMP_pressure;BME280_temperature;BME280_humidity;BME280_pressure;Samples;Min_cycle;Max_cycle;Signal;HPM_P1;HPM_P2
2020/12/14 00:03:08;;;;;;;6.78;5.30;;;;;;;6.37;76.88;99881.63;9763108;28;21314;-72
2020/12/14 00:08:09;;;;;;;6.15;5.32;;;;;;;6.41;76.89;99876.13;9765366;28;20059;-70
2020/12/14 00:13:11;;;;;;;7.32;5.63;;;;;;;6.33;77.16;99872.22;9767571;28;20110;-70
2020/12/14 00:18:12;;;;;;;7.38;5.40;;;;;;;6.25;77.33;99881.66;9807903;28;20050;-73
2020/12/14 00:23:13;;;;;;;7.35;5.68;;;;;;;6.18;77.41;99860.94;9803332;28;20142;-69
2020/12/14 00:28:14;;;;;;;6.53;5.35;;;;;;;6.19;77.58;99862.59;9786111;28;20050;-71
2020/12/14 00:33:15;;;;;;;9.18;5.75;;;;;;;6.21;77.35;99865.16;9766478;28;20062;-72
2020/12/14 00:38:16;;;;;;;6.15;5.55;;;;;;;6.17;77.37;99871.59;9771313;28;22408;-72
2020/12/14 00:43:18;;;;;;;7.45;5.90;;;;;;;6.09;77.72;99858.06;9789962;28;20489;-74
2020/12/14 00:48:19;;;;;;;7.28;5.72;;;;;;;6.05;77.60;99846.00;9774512;28;23158;-73
2020/12/14 00:53:20;;;;;;;7.93;5.35;;;;;;;6.07;77.57;99846.75;9793330;28;22123;-76
2020/12/14 00:58:21;;;;;;;9.43;6.43;;;;;;;6.11;77.71;99849.09;9769739;28;20130;-71
2020/12/14 01:03:26;;;;;;;;;;;;;;;6.11;77.68;99837.66;9768377;28;21490;-72
2020/12/14 01:08:28;;;;;;;6.13;5.53;;;;;;;6.12;77.57;99836.72;9766774;28;19936;-72
2020/12/14 01:13:30;;;;;;;9.70;6.47;;;;;;;6.16;77.37;99835.56;9776311;28;20221;-71
2020/12/14 01:18:31;;;;;;;8.05;6.03;;;;;;;6.26;76.75;99835.75;9783720;28;20046;-73
2020/12/14 01:23:32;;;;;;;7.35;6.22;;;;;;;6.25;76.74;99834.91;9781445;28;20716;-73
2020/12/14 01:28:33;;;;;;;6.95;5.82;;;;;;;6.22;76.60;99842.22;9768551;28;21573;-72
2020/12/14 01:33:34;;;;;;;7.15;6.50;;;;;;;6.27;77.00;99854.16;9780617;28;20151;-73
2020/12/14 01:38:36;;;;;;;6.97;5.63;;;;;;;6.24;76.56;99859.66;9780005;28;21435;-74
2020/12/14 01:43:37;;;;;;;8.10;5.90;;;;;;;6.33;76.67;99864.28;9758700;28;20061;-71
2020/12/14 01:48:39;;;;;;;6.18;5.57;;;;;;;6.46;76.13;99861.66;9782366;28;20059;-71
2020/12/14 01:53:42;;;;;;;7.00;5.95;;;;;;;6.51;76.08;99856.03;9780406;28;20051;-71
2020/12/14 01:58:43;;;;;;;7.07;6.38;;;;;;;6.32;76.42;99841.47;9793696;28;20052;-73
2020/12/14 02:03:45;;;;;;;7.63;6.00;;;;;;;6.30;76.19;99827.50;9796086;28;20058;-75
2020/12/14 02:08:46;;;;;;;7.07;6.38;;;;;;;6.24;76.17;99833.22;9823002;28;20059;-73
2020/12/14 02:13:47;;;;;;;8.48;6.90;;;;;;;6.29;76.33;99830.25;9795028;28;20117;-72
2020/12/14 02:18:48;;;;;;;6.40;5.80;;;;;;;6.23;76.23;99833.31;9748440;28;20102;-73
2020/12/14 02:23:50;;;;;;;6.93;6.30;;;;;;;6.27;76.25;99837.44;9781716;28;20110;-72
2020/12/14 02:28:51;;;;;;;7.22;6.10;;;;;;;6.26;75.94;99825.19;9793413;28;20055;-72
2020/12/14 02:33:52;;;;;;;7.28;6.40;;;;;;;6.18;75.43;99817.78;9792466;28;20113;-72
2020/12/14 02:38:53;;;;;;;5.93;5.40;;;;;;;6.24;75.51;99814.72;9770630;28;20059;-73
2020/12/14 02:43:55;;;;;;;7.18;5.68;;;;;;;6.31;74.94;99812.50;9781566;28;21899;-73
2020/12/14 02:48:56;;;;;;;8.38;5.95;;;;;;;6.32;74.84;99812.41;9767099;28;20201;-69
2020/12/14 02:53:57;;;;;;;6.30;5.75;;;;;;;6.20;75.29;99815.91;9761006;28;25160;-72
2020/12/14 02:58:58;;;;;;;6.90;6.20;;;;;;;6.15;74.87;99796.84;9800879;28;20076;-73
2020/12/14 03:04:00;;;;;;;6.32;5.72;;;;;;;6.19;74.71;99800.97;9799469;28;20101;-72
2020/12/14 03:09:01;;;;;;;7.95;6.10;;;;;;;6.12;75.12;99791.78;9787963;28;20078;-72
2020/12/14 03:14:02;;;;;;;6.22;5.63;;;;;;;6.11;75.06;99790.09;9781538;28;20668;-73
2020/12/14 03:19:03;;;;;;;5.97;5.38;;;;;;;6.13;75.07;99788.19;9814719;28;20054;-70
2020/12/14 03:24:05;;;;;;;6.20;5.50;;;;;;;6.06;75.14;99797.50;9829731;28;20058;-73
2020/12/14 03:29:07;;;;;;;6.25;5.53;;;;;;;6.02;75.15;99815.38;9782997;28;20059;-72
2020/12/14 03:34:09;;;;;;;7.50;5.97;;;;;;;6.00;75.65;99812.84;9779276;28;21611;-74
2020/12/14 03:39:10;;;;;;;6.63;5.93;;;;;;;6.10;75.10;99809.56;9752600;28;20149;-72
2020/12/14 03:44:11;;;;;;;7.18;5.70;;;;;;;6.00;75.55;99815.47;9781562;28;20523;-72
2020/12/14 03:49:13;;;;;;;6.97;5.30;;;;;;;5.98;75.33;99811.25;9802437;28;20122;-73
2020/12/14 03:54:14;;;;;;;7.18;6.28;;;;;;;5.90;75.38;99813.50;9767076;28;20083;-71
2020/12/14 03:59:15;;;;;;;6.72;5.55;;;;;;;5.87;75.72;99822.50;9775587;28;20062;-73
2020/12/14 04:04:16;;;;;;;6.05;5.45;;;;;;;5.98;75.59;99821.81;9784435;28;23847;-73
2020/12/14 04:09:17;;;;;;;7.60;6.80;;;;;;;6.05;75.38;99816.94;9782193;28;20118;-73
2020/12/14 04:14:19;;;;;;;6.00;5.50;;;;;;;6.12;74.88;99818.22;9761955;28;20351;-71
2020/12/14 04:19:23;;;;;;;6.75;6.15;;;;;;;6.18;74.69;99801.94;9772030;28;20047;-72
2020/12/14 04:24:26;;;;;;;5.90;5.40;;;;;;;6.27;74.49;99803.91;9763744;28;20145;-70
2020/12/14 04:29:27;;;;;;;5.80;5.20;;;;;;;6.28;74.17;99807.44;9759493;28;20055;-73
2020/12/14 04:34:28;;;;;;;6.65;6.05;;;;;;;6.32;73.87;99814.16;9794637;28;20074;-70
2020/12/14 04:39:29;;;;;;;6.55;5.85;;;;;;;6.25;74.29;99812.94;9769782;28;20066;-72
2020/12/14 04:44:31;;;;;;;6.47;5.88;;;;;;;6.19;74.37;99803.63;9784501;28;20054;-72
2020/12/14 04:49:33;;;;;;;6.10;5.30;;;;;;;6.11;74.59;99808.56;9751566;28;20063;-74
2020/12/14 04:54:34;;;;;;;7.30;5.43;;;;;;;6.23;74.44;99815.69;9770157;28;21076;-73
2020/12/14 04:59:36;;;;;;;5.95;5.45;;;;;;;6.33;74.03;99819.34;9753633;28;20066;-72
2020/12/14 05:04:38;;;;;;;5.60;5.10;;;;;;;6.26;74.52;99814.59;9763170;28;20059;-73
2020/12/14 05:09:43;;;;;;;6.15;5.03;;;;;;;6.24;74.51;99817.34;9776043;28;20063;-73
2020/12/14 05:14:44;;;;;;;5.20;4.78;;;;;;;6.25;74.42;99821.69;9812157;28;20134;-70
2020/12/14 05:19:46;;;;;;;5.90;5.28;;;;;;;6.27;74.39;99822.44;9793247;28;20083;-69
2020/12/14 05:24:49;;;;;;;6.28;5.10;;;;;;;6.28;74.62;99821.47;9839099;28;20054;-73
2020/12/14 05:29:50;;;;;;;5.78;5.20;;;;;;;6.33;74.01;99816.72;9767125;28;20048;-72
2020/12/14 05:34:52;;;;;;;6.10;5.22;;;;;;;6.27;74.07;99811.84;9771379;28;20055;-72
2020/12/14 05:39:53;;;;;;;5.40;4.68;;;;;;;6.24;73.80;99805.94;9786889;28;20073;-73
2020/12/14 05:44:54;;;;;;;5.65;4.82;;;;;;;6.37;74.01;99818.19;9787377;28;23694;-72
2020/12/14 05:50:00;;;;;;;5.43;4.93;;;;;;;6.28;74.09;99807.44;9784291;28;20050;-73
2020/12/14 05:55:01;;;;;;;6.30;4.97;;;;;;;6.19;74.63;99819.47;9780752;28;20174;-72
2020/12/14 06:00:07;;;;;;;7.50;5.80;;;;;;;6.20;74.47;99826.47;9752845;28;20063;-72
2020/12/14 06:05:09;;;;;;;6.97;5.38;;;;;;;6.30;73.94;99838.06;10000467;28;20111;-72
2020/12/14 06:10:12;;;;;;;6.00;4.63;;;;;;;6.40;74.09;99842.75;9808575;28;21807;-71
2020/12/14 06:15:17;;;;;;;7.22;5.35;;;;;;;6.46;73.76;99839.66;9774851;28;20055;-72
2020/12/14 06:20:22;;;;;;;6.00;5.40;;;;;;;6.48;73.26;99840.41;9790362;28;20058;-74
2020/12/14 06:25:24;;;;;;;5.55;5.05;;;;;;;6.50;73.28;99834.06;9826968;28;20504;-72
2020/12/14 06:30:33;;;;;;;5.90;5.30;;;;;;;6.35;73.33;99841.25;9797316;28;21615;-73
2020/12/14 06:35:41;;;;;;;6.07;5.38;;;;;;;6.26;74.34;99831.31;9758091;28;20232;-73
2020/12/14 06:40:58;;;;;;;8.68;5.35;;;;;;;6.31;73.44;99834.47;9770818;28;20055;-73
2020/12/14 06:46:02;;;;;;;8.90;5.40;;;;;;;6.39;73.56;99830.47;9735014;28;20110;-71
2020/12/14 06:51:05;;;;;;;6.15;5.53;;;;;;;6.35;73.40;99835.09;9783412;28;20066;-73
2020/12/14 06:56:08;;;;;;;5.68;4.53;;;;;;;6.15;74.18;99823.28;9841929;28;20130;-73
2020/12/14 07:01:35;;;;;;;5.95;5.35;;;;;;;6.24;73.68;99843.78;9769294;28;20059;-72
2020/12/14 07:06:36;;;;;;;5.22;4.72;;;;;;;6.13;73.86;99841.88;9757758;28;20055;-73
2020/12/14 07:11:37;;;;;;;8.90;5.28;;;;;;;6.20;73.81;99847.63;9775332;28;20066;-72
2020/12/14 07:16:40;;;;;;;5.78;4.88;;;;;;;6.32;73.99;99846.75;9767641;28;20058;-71
2020/12/14 07:21:52;;;;;;;6.60;5.10;;;;;;;6.38;72.97;99845.50;9755486;28;20058;-74
2020/12/14 07:26:53;;;;;;;7.43;5.10;;;;;;;6.39;72.84;99841.03;9758486;28;23532;-74
2020/12/14 07:31:54;;;;;;;6.00;5.15;;;;;;;6.44;73.19;99849.47;9763646;28;22324;-73
2020/12/14 07:36:56;;;;;;;7.13;4.82;;;;;;;6.41;73.60;99849.69;9795416;28;20061;-73
2020/12/14 07:41:57;;;;;;;6.65;5.70;;;;;;;6.60;72.45;99860.69;9767701;28;24397;-74
2020/12/14 07:46:58;;;;;;;6.38;5.28;;;;;;;6.52;72.35;99861.22;9784358;28;20852;-76
2020/12/14 07:52:02;;;;;;;5.40;4.90;;;;;;;6.60;71.93;99858.03;9785527;28;20054;-74
2020/12/14 07:57:07;;;;;;;5.40;4.82;;;;;;;6.63;71.99;99864.91;9761195;28;20472;-74
2020/12/14 08:02:11;;;;;;;6.38;5.18;;;;;;;6.66;72.12;99877.94;9810954;28;20059;-75
2020/12/14 08:07:17;;;;;;;6.30;3.55;;;;;;;6.73;71.82;99874.75;9820563;28;20067;-75
2020/12/14 08:12:19;;;;;;;5.28;4.72;;;;;;;6.76;71.13;99878.13;9776766;28;20050;-75
2020/12/14 08:17:21;;;;;;;6.45;5.20;;;;;;;6.74;71.19;99875.59;9771361;28;20153;-74
2020/12/14 08:22:31;;;;;;;5.22;4.43;;;;;;;6.84;71.33;99878.44;9778998;28;20440;-74
2020/12/14 08:27:50;;;;;;;6.50;5.00;;;;;;;6.94;70.73;99890.06;9790343;28;20054;-72
2020/12/14 08:33:10;;;;;;;5.60;5.05;;;;;;;6.95;70.38;99897.06;9781471;28;20098;-73
2020/12/14 08:38:13;;;;;;;5.65;4.45;;;;;;;6.97;70.45;99884.53;9808842;28;20062;-74
2020/12/14 08:43:16;;;;;;;5.70;4.95;;;;;;;7.02;70.36;99881.56;9848102;28;20058;-74
2020/12/14 08:48:17;;;;;;;7.18;5.65;;;;;;;7.17;70.03;99884.91;9785861;28;20051;-73
2020/12/14 08:53:24;;;;;;;6.72;5.55;;;;;;;7.13;69.63;99894.91;9765867;28;21505;-73
2020/12/14 08:58:25;;;;;;;5.75;5.15;;;;;;;7.27;69.98;99904.47;9753066;28;20106;-73
2020/12/14 09:03:26;;;;;;;6.18;5.28;;;;;;;7.39;69.78;99890.34;9736856;28;20058;-73
2020/12/14 09:08:28;;;;;;;5.35;4.30;;;;;;;7.55;68.87;99895.38;9775465;28;20090;-72
2020/12/14 09:13:29;;;;;;;5.22;4.65;;;;;;;7.65;67.61;99906.13;9791285;28;20134;-70
2020/12/14 09:18:33;;;;;;;5.10;4.43;;;;;;;7.86;66.94;99903.69;9780564;28;20090;-73
2020/12/14 09:23:34;;;;;;;5.28;4.78;;;;;;;8.09;66.68;99907.25;9759803;28;20046;-73
2020/12/14 09:28:36;;;;;;;6.40;4.45;;;;;;;8.21;66.89;99910.78;9787371;28;20055;-73
2020/12/14 09:33:37;;;;;;;5.45;4.20;;;;;;;8.50;65.43;99918.34;9764195;28;20131;-70
2020/12/14 09:38:40;;;;;;;4.65;4.10;;;;;;;8.60;64.36;99908.72;9781482;28;20500;-72
2020/12/14 09:43:43;;;;;;;3.83;3.42;;;;;;;8.91;63.67;99911.59;9789968;28;20122;-72
2020/12/14 09:48:44;;;;;;;5.40;4.55;;;;;;;8.94;62.91;99906.06;9766161;28;20825;-70
2020/12/14 09:53:45;;;;;;;6.18;4.75;;;;;;;8.87;63.69;99904.00;9775875;28;20050;-71
2020/12/14 09:58:48;;;;;;;4.35;3.85;;;;;;;9.01;62.79;99903.78;9754763;28;20081;-73
2020/12/14 10:03:49;;;;;;;5.03;4.53;;;;;;;9.23;62.06;99899.38;9758693;28;20058;-72
2020/12/14 10:08:51;;;;;;;4.70;4.28;;;;;;;9.45;61.01;99902.00;9774570;28;21482;-72
2020/12/14 10:13:53;;;;;;;5.50;4.78;;;;;;;9.44;62.17;99891.50;9747291;28;21784;-70
2020/12/14 10:18:54;;;;;;;5.65;4.88;;;;;;;9.34;61.80;99886.94;9771722;28;20537;-73
2020/12/14 10:23:55;;;;;;;4.75;4.25;;;;;;;9.85;60.18;99893.41;9788105;28;20058;-73
2020/12/14 10:28:56;;;;;;;4.45;4.03;;;;;;;10.34;58.80;99885.78;9791366;28;20054;-73
2020/12/14 10:33:59;;;;;;;4.53;4.00;;;;;;;11.03;56.94;99881.59;9785784;28;20051;-73
2020/12/14 10:39:02;;;;;;;5.72;3.92;;;;;;;11.53;55.47;99872.75;9769126;28;20051;-72
2020/12/14 10:44:03;;;;;;;3.45;3.00;;;;;;;11.35;56.46;99858.41;9777327;28;20549;-74
2020/12/14 10:49:04;;;;;;;3.70;3.25;;;;;;;11.78;54.20;99873.16;9798611;28;20096;-72
2020/12/14 10:54:05;;;;;;;4.10;3.70;;;;;;;14.49;47.53;99870.16;9766348;28;20205;-71
2020/12/14 10:59:07;;;;;;;3.35;3.00;;;;;;;16.38;41.80;99856.34;9773535;28;21308;-74
2020/12/14 11:04:08;;;;;;;4.55;3.20;;;;;;;16.44;41.76;99851.13;9774639;28;20051;-72
2020/12/14 11:09:09;;;;;;;4.88;3.63;;;;;;;15.43;43.30;99846.91;9797728;28;25215;-74
2020/12/14 11:14:11;;;;;;;3.58;2.85;;;;;;;14.59;45.73;99837.88;9982287;28;20528;-74
2020/12/14 11:19:12;;;;;;;5.30;3.90;;;;;;;14.43;45.73;99844.03;9798747;28;21569;-71
2020/12/14 11:24:13;;;;;;;3.92;2.70;;;;;;;15.58;43.57;99843.59;9742965;28;20106;-74
2020/12/14 11:29:15;;;;;;;4.40;3.28;;;;;;;16.09;42.52;99825.50;9750330;28;20059;-73
2020/12/14 11:34:16;;;;;;;4.15;2.78;;;;;;;21.12;33.71;99818.81;9755293;28;20062;-73
2020/12/14 11:39:17;;;;;;;2.78;2.58;;;;;;;19.37;35.44;99823.97;9777569;28;20154;-73
2020/12/14 11:44:19;;;;;;;4.95;3.00;;;;;;;15.35;42.09;99814.72;9783244;28;20067;-74
2020/12/14 11:49:20;;;;;;;4.15;3.00;;;;;;;13.67;46.65;99816.88;9768605;28;20149;-73
2020/12/14 11:54:21;;;;;;;4.50;3.00;;;;;;;12.67;49.26;99814.16;9766951;28;20093;-70
2020/12/14 11:59:23;;;;;;;6.32;3.45;;;;;;;11.99;50.42;99812.56;9766994;28;20134;-73
2020/12/14 12:04:24;;;;;;;5.43;3.17;;;;;;;11.66;51.95;99806.66;9760916;28;20055;-75
2020/12/14 12:09:25;;;;;;;2.75;2.30;;;;;;;11.49;52.77;99802.03;9757931;28;20055;-73
2020/12/14 12:14:26;;;;;;;3.55;2.30;;;;;;;11.61;52.52;99806.22;9752542;28;20456;-72
2020/12/14 12:19:28;;;;;;;3.58;2.58;;;;;;;11.53;53.15;99803.44;9749156;28;20055;-73
2020/12/14 12:24:31;;;;;;;5.73;3.27;;;;;;;11.63;54.00;99803.44;9744718;28;21399;-74
2020/12/14 12:29:33;;;;;;;4.57;2.67;;;;;;;11.59;53.81;99802.00;9742677;28;20210;-74
2020/12/14 12:34:35;;;;;;;4.55;2.33;;;;;;;12.24;52.13;99807.56;9761042;28;20067;-74
2020/12/14 12:39:37;;;;;;;5.57;2.65;;;;;;;12.25;51.72;99809.25;9767485;28;20109;-73
2020/12/14 12:44:38;;;;;;;3.63;2.72;;;;;;;11.55;52.83;99804.13;9767380;28;20054;-72
2020/12/14 12:49:42;;;;;;;4.10;2.83;;;;;;;11.31;54.82;99797.38;9771175;28;20702;-71
2020/12/14 12:54:43;;;;;;;4.22;2.65;;;;;;;11.60;52.89;99798.38;9756239;28;20050;-73
2020/12/14 12:59:44;;;;;;;4.70;1.98;;;;;;;11.66;52.33;99797.81;9773648;28;20054;-70
2020/12/14 13:04:46;;;;;;;3.22;2.20;;;;;;;11.42;52.55;99783.09;9763207;28;20134;-72
2020/12/14 13:09:48;;;;;;;3.45;1.70;;;;;;;11.70;52.43;99787.72;9771379;28;20199;-72
2020/12/14 13:14:50;;;;;;;4.90;2.20;;;;;;;12.38;50.50;99760.88;9787036;28;20132;-72
2020/12/14 13:19:51;;;;;;;5.60;1.95;;;;;;;15.06;43.79;99740.97;9780653;28;20513;-73
2020/12/14 13:24:53;;;;;;;3.17;2.40;;;;;;;14.78;44.31;99743.91;9801014;28;21390;-73
2020/12/14 13:29:54;;;;;;;4.45;2.13;;;;;;;13.58;46.85;99740.25;9787700;28;20113;-72
2020/12/14 13:35:08;;;;;;;6.25;2.80;;;;;;;12.91;48.86;99740.63;9785175;28;20076;-72
2020/12/14 13:40:09;;;;;;;4.97;2.63;;;;;;;12.57;50.74;99735.09;9792844;28;20054;-73
2020/12/14 13:45:11;;;;;;;2.50;2.30;;;;;;;12.23;51.46;99752.50;9785589;28;21553;-73
2020/12/14 13:50:12;;;;;;;5.88;2.58;;;;;;;11.84;53.01;99758.78;9793688;28;20710;-71
2020/12/14 13:55:13;;;;;;;3.10;2.17;;;;;;;11.51;54.19;99760.06;9803687;28;20058;-73
2020/12/14 14:00:15;;;;;;;2.55;2.08;;;;;;;11.28;55.45;99752.38;9772460;28;20745;-73
2020/12/14 14:05:16;;;;;;;3.40;2.03;;;;;;;11.11;56.20;99751.25;9744804;28;23251;-74
2020/12/14 14:10:17;;;;;;;4.32;2.15;;;;;;;10.95;56.50;99746.47;9721951;28;20071;-71
2020/12/14 14:15:19;;;;;;;2.72;1.60;;;;;;;10.57;57.09;99764.06;9751758;28;21690;-73
2020/12/14 14:20:22;;;;;;;3.92;2.35;;;;;;;10.20;58.41;99772.56;9758250;28;20051;-71
2020/12/14 14:25:24;;;;;;;4.37;2.30;;;;;;;10.19;58.88;99786.84;9789183;28;20216;-76
2020/12/14 14:30:25;;;;;;;4.15;2.30;;;;;;;10.08;58.91;99786.91;9758519;28;20773;-71
2020/12/14 14:35:27;;;;;;;4.25;2.08;;;;;;;10.00;59.56;99795.56;9752736;28;20086;-72
2020/12/14 14:40:28;;;;;;;3.75;2.40;;;;;;;9.94;59.80;99798.75;9784572;28;20661;-73
2020/12/14 14:45:30;;;;;;;2.72;1.95;;;;;;;9.85;59.98;99800.34;9778355;28;24404;-72
2020/12/14 14:50:34;;;;;;;4.95;2.30;;;;;;;9.77;60.49;99800.16;9772095;28;20077;-71
2020/12/14 14:55:35;;;;;;;4.88;2.47;;;;;;;9.67;60.93;99796.59;9763720;28;20086;-68
2020/12/14 15:00:37;;;;;;;4.45;2.72;;;;;;;9.57;61.46;99796.53;9777823;28;23379;-70
2020/12/14 15:05:39;;;;;;;4.80;2.70;;;;;;;9.43;62.10;99800.34;9752625;28;20057;-72
2020/12/14 15:10:40;;;;;;;4.68;2.95;;;;;;;9.30;62.52;99783.72;9739888;28;20082;-72
2020/12/14 15:15:43;;;;;;;4.35;3.28;;;;;;;9.15;63.19;99786.66;9761678;28;20210;-72
2020/12/14 15:20:45;;;;;;;5.72;3.30;;;;;;;9.14;63.64;99800.94;9751685;28;20132;-72
2020/12/14 15:25:46;;;;;;;3.63;3.28;;;;;;;9.06;63.81;99790.06;9733719;28;20051;-72
2020/12/14 15:30:47;;;;;;;4.10;3.08;;;;;;;9.05;64.10;99791.03;9739649;28;20540;-72
2020/12/14 15:35:50;;;;;;;7.07;3.72;;;;;;;8.96;64.20;99773.19;9721363;28;20145;-74
2020/12/14 15:40:51;;;;;;;4.35;3.70;;;;;;;8.89;64.65;99764.03;9729826;28;20130;-72
2020/12/14 15:45:54;;;;;;;5.10;4.15;;;;;;;8.81;64.83;99784.09;9749365;28;20183;-72
2020/12/14 15:50:56;;;;;;;5.35;4.38;;;;;;;8.73;64.81;99778.56;9742562;28;20051;-70
2020/12/14 15:55:57;;;;;;;5.13;4.47;;;;;;;8.67;64.81;99781.72;9743911;28;20055;-72
2020/12/14 16:00:59;;;;;;;5.55;4.70;;;;;;;8.66;65.37;99796.78;9747419;28;21947;-72
2020/12/14 16:06:00;;;;;;;5.38;4.88;;;;;;;8.59;65.41;99800.91;9745845;28;20082;-73
2020/12/14 16:11:02;;;;;;;5.65;4.63;;;;;;;8.51;65.79;99794.50;9747077;28;20066;-72
2020/12/14 16:16:04;;;;;;;4.78;4.38;;;;;;;8.40;65.87;99796.16;9757547;28;20058;-71
2020/12/14 16:21:06;;;;;;;4.60;4.18;;;;;;;8.36;66.42;99793.88;9742830;28;20055;-71
2020/12/14 16:26:08;;;;;;;6.28;5.15;;;;;;;8.34;66.50;99790.50;9754684;28;20577;-72
2020/12/14 16:31:09;;;;;;;6.00;5.40;;;;;;;8.27;66.47;99790.13;9731283;28;20059;-72
2020/12/14 16:36:11;;;;;;;5.40;4.90;;;;;;;8.22;66.85;99787.00;9741010;28;22636;-72
2020/12/14 16:41:12;;;;;;;5.40;4.68;;;;;;;8.14;67.07;99801.69;9729101;28;21250;-71
2020/12/14 16:46:13;;;;;;;5.70;5.15;;;;;;;8.02;67.51;99802.66;9760302;28;20105;-72
2020/12/14 16:51:15;;;;;;;5.30;4.80;;;;;;;7.96;67.90;99813.72;9747763;28;20493;-72
2020/12/14 16:56:16;;;;;;;6.35;5.65;;;;;;;7.96;67.99;99813.72;9745750;28;20087;-72
2020/12/14 17:01:18;;;;;;;8.23;4.88;;;;;;;7.98;68.19;99811.78;9743502;28;20703;-71
2020/12/14 17:06:20;;;;;;;7.07;5.70;;;;;;;7.99;67.72;99792.28;9736548;28;20057;-72
2020/12/14 17:11:24;;;;;;;7.82;6.75;;;;;;;7.96;68.04;99793.38;9725501;28;20059;-71
2020/12/14 17:16:25;;;;;;;7.72;6.07;;;;;;;8.04;68.09;99811.31;9742315;28;20058;-71
2020/12/14 17:21:27;;;;;;;6.00;5.40;;;;;;;8.00;68.31;99794.00;9728170;28;20058;-70
2020/12/14 17:26:31;;;;;;;8.50;7.63;;;;;;;7.88;68.68;99794.91;9735691;28;20213;-71
2020/12/14 17:31:32;;;;;;;7.30;6.60;;;;;;;7.91;68.51;99787.59;9732899;28;20062;-72
2020/12/14 17:36:34;;;;;;;7.78;6.97;;;;;;;7.88;68.53;99779.88;9756746;28;20300;-71
2020/12/14 17:41:35;;;;;;;7.60;6.90;;;;;;;7.91;68.42;99760.22;9759899;28;20132;-70
2020/12/14 17:46:40;;;;;;;8.98;8.07;;;;;;;7.88;68.78;99757.81;9753825;28;20059;-72
2020/12/14 17:51:41;;;;;;;;;;;;;;;7.85;69.36;99763.34;9749273;28;20057;-72
2020/12/14 17:56:43;;;;;;;12.35;11.25;;;;;;;7.80;69.20;99755.75;9754720;28;19977;-70
2020/12/14 18:01:45;;;;;;;13.02;11.85;;;;;;;7.78;69.20;99747.09;9746439;28;21886;-69
2020/12/14 18:06:47;;;;;;;23.48;21.58;;;;;;;7.81;68.71;99762.75;9734797;28;20126;-71
2020/12/14 18:11:49;;;;;;;10.73;8.13;;;;;;;7.84;69.44;99773.13;9760696;28;20135;-72
2020/12/14 18:16:51;;;;;;;10.45;9.45;;;;;;;7.87;69.73;99780.00;9783066;28;20058;-72
2020/12/14 18:21:52;;;;;;;19.10;17.27;;;;;;;7.92;69.79;99775.16;9759197;28;20050;-71
2020/12/14 18:26:54;;;;;;;17.90;16.10;;;;;;;7.94;68.83;99800.59;9773213;28;20153;-72
2020/12/14 21:24:42;;;;;;;10.40;9.07;;;;;;;7.42;68.79;99770.94;9761325;28;20553;-72
2020/12/14 21:29:55;;;;;;;11.32;10.23;;;;;;;7.39;69.05;99773.81;9778791;28;20055;-73
2020/12/14 21:34:57;;;;;;;12.18;10.90;;;;;;;7.41;69.16;99777.19;9775820;28;20059;-70
2020/12/14 21:39:58;;;;;;;11.15;10.15;;;;;;;7.43;69.07;99785.88;9768821;28;20721;-71
2020/12/14 21:44:59;;;;;;;11.05;10.02;;;;;;;7.39;69.27;99779.13;9761457;28;20206;-73
2020/12/14 21:50:00;;;;;;;12.23;11.02;;;;;;;7.42;69.00;99765.66;9750377;28;20046;-71
2020/12/14 21:55:03;;;;;;;11.50;10.40;;;;;;;7.38;69.43;99777.44;9760147;28;20063;-73
2020/12/14 22:00:06;;;;;;;11.95;10.77;;;;;;;7.43;69.23;99772.66;9755924;28;20059;-72
2020/12/14 22:05:07;;;;;;;11.63;10.52;;;;;;;7.47;69.00;99767.94;9744520;28;20062;-72
2020/12/14 22:10:09;;;;;;;11.90;10.77;;;;;;;7.43;68.71;99777.94;9734702;28;20184;-72
2020/12/14 22:15:10;;;;;;;11.57;10.55;;;;;;;7.35;69.02;99780.31;9761530;28;23583;-71
2020/12/14 22:20:12;;;;;;;11.32;10.30;;;;;;;7.33;69.33;99771.63;9778626;28;20077;-72
2020/12/14 22:25:13;;;;;;;12.20;10.90;;;;;;;7.40;69.44;99772.00;9758717;28;20062;-72
2020/12/14 22:30:15;;;;;;;12.07;10.77;;;;;;;7.33;69.29;99757.56;9782622;28;20066;-72
2020/12/14 22:35:16;;;;;;;10.73;9.73;;;;;;;7.30;69.37;99747.22;9793612;28;20115;-73
2020/12/14 22:40:17;;;;;;;10.63;9.63;;;;;;;7.32;69.57;99767.28;9785047;28;20140;-70
2020/12/14 22:45:18;;;;;;;11.82;10.63;;;;;;;7.37;69.64;99769.59;9841351;28;20752;-72
2020/12/14 22:50:20;;;;;;;11.55;10.43;;;;;;;7.36;69.47;99766.13;9773016;28;20758;-72
2020/12/14 22:55:21;;;;;;;11.32;10.13;;;;;;;7.36;69.50;99760.81;9817263;28;20116;-72
2020/12/14 23:00:22;;;;;;;11.43;10.35;;;;;;;7.35;69.16;99772.34;9787349;28;20090;-71
2020/12/14 23:05:24;;;;;;;11.85;10.75;;;;;;;7.36;69.73;99758.16;9776669;28;20063;-74
2020/12/14 23:10:25;;;;;;;12.10;10.75;;;;;;;7.30;69.77;99768.38;9780138;28;20054;-72
2020/12/14 23:15:28;;;;;;;11.15;10.25;;;;;;;7.33;69.84;99758.41;9785833;28;20058;-74
2020/12/14 23:20:29;;;;;;;11.75;10.68;;;;;;;7.32;69.74;99751.41;9768576;28;20157;-74
2020/12/14 23:25:37;;;;;;;11.10;10.07;;;;;;;7.31;69.84;99743.59;9788322;28;20050;-72
2020/12/14 23:30:39;;;;;;;11.65;10.50;;;;;;;7.28;69.48;99744.69;9770101;28;22078;-72
2020/12/14 23:35:40;;;;;;;10.68;9.68;;;;;;;7.33;69.75;99747.81;9789636;28;20046;-73
2020/12/14 23:40:41;;;;;;;10.38;9.45;;;;;;;7.32;69.61;99751.41;9789462;28;20531;-71
2020/12/14 23:45:46;;;;;;;11.25;10.25;;;;;;;7.29;69.94;99746.34;9796954;28;20059;-72
2020/12/14 23:50:47;;;;;;;10.90;9.90;;;;;;;7.30;69.64;99749.84;9805443;28;20054;-72
2020/12/14 23:55:51;;;;;;;10.75;9.75;;;;;;;7.29;69.93;99748.16;9772174;28;24229;-72
